Time;durP1;ratioP1;P1;durP2;ratioP2;P2;SDS_P1;SDS_P2;PMS_P1;PMS_P2;Temp;Humidity;BMP_temperature;BMP_pressure;BME280_temperature;BME280_humidity;BME280_pressure;Samples;Min_cycle;Max_cycle;Signal;HPM_P1;HPM_P2
2022/03/10 00:00:18;;;;;;;19.02;12.70;;;;;;;;;;5069637;28;20408;-64
2022/03/10 00:02:45;;;;;;;16.17;12.55;;;;;;;;;;5058501;28;20125;-64
2022/03/10 00:05:13;;;;;;;17.20;12.02;;;;;;;;;;5060396;28;20032;-64
2022/03/10 00:07:39;;;;;;;19.30;12.88;;;;;;;;;;5048633;28;20440;-64
2022/03/10 00:10:05;;;;;;;16.85;12.00;;;;;;;;;;5065704;28;20048;-64
2022/03/10 00:12:31;;;;;;;20.20;13.73;;;;;;;;;;5069186;28;20040;-64
2022/03/10 00:14:57;;;;;;;18.63;12.50;;;;;;;;;;5070556;28;20044;-64
2022/03/10 00:17:24;;;;;;;16.77;12.40;;;;;;;;;;5060405;28;20167;-64
2022/03/10 00:19:50;;;;;;;17.25;13.07;;;;;;;;;;5055556;28;20365;-63
2022/03/10 00:22:16;;;;;;;15.63;12.00;;;;;;;;;;5059746;28;20041;-64
2022/03/10 00:24:42;;;;;;;17.08;12.98;;;;;;;;;;5061855;28;20051;-65
2022/03/10 00:27:08;;;;;;;17.25;13.20;;;;;;;;;;5058105;28;20422;-65
2022/03/10 00:29:34;;;;;;;17.40;12.88;;;;;;;;;;5066000;28;20033;-64
2022/03/10 00:32:01;;;;;;;17.00;12.35;;;;;;;;;;5043216;28;20059;-66
2022/03/10 00:34:28;;;;;;;19.10;13.38;;;;;;;;;;5061843;28;20124;-64
2022/03/10 00:36:57;;;;;;;17.65;12.85;;;;;;;;;;5062294;28;20056;-60
2022/03/10 00:39:23;;;;;;;19.23;12.25;;;;;;;;;;5034049;28;20039;-60
2022/03/10 00:41:49;;;;;;;22.08;12.57;;;;;;;;;;5068952;28;20051;-66
2022/03/10 00:44:16;;;;;;;16.70;12.70;;;;;;;;;;5064709;28;20029;-62
2022/03/10 00:46:43;;;;;;;19.05;13.75;;;;;;;;;;5057317;28;20088;-61
2022/03/10 00:49:09;;;;;;;22.33;13.82;;;;;;;;;;5060134;28;20078;-61
2022/03/10 00:51:37;;;;;;;17.63;12.52;;;;;;;;;;5052757;28;20037;-61
2022/03/10 00:54:03;;;;;;;16.48;12.77;;;;;;;;;;5058947;28;20049;-59
2022/03/10 00:56:29;;;;;;;15.27;11.25;;;;;;;;;;5067393;28;20174;-59
2022/03/10 00:58:55;;;;;;;15.73;12.40;;;;;;;;;;5060076;28;20045;-59
2022/03/10 01:01:21;;;;;;;17.67;12.60;;;;;;;;;;5069030;28;20115;-59
2022/03/10 01:03:48;;;;;;;17.55;13.68;;;;;;;;;;5060161;28;20033;-60
2022/03/10 01:06:14;;;;;;;18.15;13.07;;;;;;;;;;5055485;28;20040;-61
2022/03/10 01:08:40;;;;;;;17.25;12.20;;;;;;;;;;5045337;28;20106;-61
2022/03/10 01:11:06;;;;;;;18.75;13.05;;;;;;;;;;5061579;28;20044;-61
2022/03/10 01:13:32;;;;;;;18.85;13.90;;;;;;;;;;5068401;28;20488;-63
2022/03/10 01:15:59;;;;;;;17.30;13.18;;;;;;;;;;5030087;28;20036;-60
2022/03/10 01:18:25;;;;;;;19.52;14.30;;;;;;;;;;5039559;28;20043;-63
2022/03/10 01:20:51;;;;;;;22.08;13.88;;;;;;;;;;5052784;28;20041;-61
2022/03/10 01:23:17;;;;;;;18.65;13.18;;;;;;;;;;5066100;28;20041;-60
2022/03/10 01:25:43;;;;;;;19.38;13.38;;;;;;;;;;5042647;28;20097;-61
2022/03/10 01:28:09;;;;;;;18.88;13.50;;;;;;;;;;5057656;28;20042;-61
2022/03/10 01:30:35;;;;;;;19.00;12.57;;;;;;;;;;5052382;28;20497;-61
2022/03/10 01:33:01;;;;;;;20.25;13.98;;;;;;;;;;5058784;28;20041;-61
2022/03/10 01:35:28;;;;;;;21.75;14.18;;;;;;;;;;5034825;28;20406;-60
2022/03/10 01:37:54;;;;;;;20.30;14.00;;;;;;;;;;5052426;28;20051;-61
2022/03/10 01:40:20;;;;;;;19.33;13.60;;;;;;;;;;5060210;28;20044;-60
2022/03/10 01:42:50;;;;;;;17.58;12.80;;;;;;;;;;5055873;28;20048;-60
2022/03/10 01:45:16;;;;;;;16.38;12.52;;;;;;;;;;5062798;28;20044;-61
2022/03/10 01:47:42;;;;;;;20.17;14.40;;;;;;;;;;5059554;28;20037;-61
2022/03/10 01:50:09;;;;;;;19.13;13.50;;;;;;;;;;5060452;28;20467;-61
2022/03/10 01:52:36;;;;;;;18.08;12.65;;;;;;;;;;5051128;28;20111;-60
2022/03/10 01:55:03;;;;;;;18.17;13.25;;;;;;;;;;5058511;28;20035;-61
2022/03/10 01:57:29;;;;;;;21.80;12.95;;;;;;;;;;5059492;28;20086;-61
2022/03/10 01:59:55;;;;;;;22.48;13.82;;;;;;;;;;5033841;28;20409;-64
2022/03/10 02:02:21;;;;;;;23.40;13.95;;;;;;;;;;5059364;28;20493;-65
2022/03/10 02:04:47;;;;;;;20.98;13.35;;;;;;;;;;5066680;28;20076;-64
2022/03/10 02:10:16;;;;;;;21.50;13.45;;;;;;;;;;5064589;28;20390;-64
2022/03/10 02:12:43;;;;;;;19.27;13.55;;;;;;;;;;5054421;28;20093;-64
2022/03/10 02:17:58;;;;;;;18.00;13.48;;;;;;;;;;5059725;28;20127;-61
2022/03/10 02:20:24;;;;;;;19.52;13.30;;;;;;;;;;5054432;28;20033;-62
2022/03/10 02:22:50;;;;;;;21.65;14.48;;;;;;;;;;5044857;28;20036;-61
2022/03/10 02:25:16;;;;;;;20.35;13.70;;;;;;;;;;5057545;28;20040;-62
2022/03/10 02:27:49;;;;;;;19.50;13.20;;;;;;;;;;5054656;28;20429;-61
2022/03/10 02:30:15;;;;;;;20.60;12.95;;;;;;;;;;5063612;28;20059;-62
2022/03/10 02:32:41;;;;;;;16.90;12.82;;;;;;;;;;5061766;28;20033;-62
2022/03/10 02:35:08;;;;;;;19.92;14.32;;;;;;;;;;5064438;28;20052;-62
2022/03/10 02:37:34;;;;;;;18.02;13.75;;;;;;;;;;5051360;28;20083;-62
2022/03/10 02:40:00;;;;;;;21.00;14.63;;;;;;;;;;5062924;28;20174;-61
2022/03/10 02:42:27;;;;;;;21.65;13.90;;;;;;;;;;5054451;28;20037;-61
2022/03/10 02:44:53;;;;;;;20.63;13.85;;;;;;;;;;5068386;28;20556;-62
2022/03/10 02:47:19;;;;;;;29.58;15.82;;;;;;;;;;5065025;28;20037;-62
2022/03/10 02:49:45;;;;;;;21.50;14.93;;;;;;;;;;5059166;28;20041;-62
2022/03/10 02:52:11;;;;;;;18.48;13.82;;;;;;;;;;5050057;28;20494;-62
2022/03/10 02:54:38;;;;;;;20.67;13.13;;;;;;;;;;5060735;28;20036;-62
2022/03/10 02:57:04;;;;;;;21.52;14.40;;;;;;;;;;5052529;28;20040;-62
2022/03/10 02:59:30;;;;;;;20.73;13.73;;;;;;;;;;5056573;28;20041;-62
2022/03/10 03:01:56;;;;;;;20.15;14.63;;;;;;;;;;5058663;28;20041;-62
2022/03/10 03:04:26;;;;;;;20.38;13.80;;;;;;;;;;5054835;28;20036;-62
2022/03/10 03:06:52;;;;;;;23.45;14.35;;;;;;;;;;5053634;28;20090;-62
2022/03/10 03:09:18;;;;;;;20.25;14.18;;;;;;;;;;5053034;28;20041;-62
2022/03/10 03:11:44;;;;;;;20.38;14.18;;;;;;;;;;5056522;28;20508;-62
2022/03/10 03:14:10;;;;;;;21.00;13.40;;;;;;;;;;5058710;28;20040;-62
2022/03/10 03:16:37;;;;;;;20.83;14.65;;;;;;;;;;5060262;28;20072;-62
2022/03/10 03:19:03;;;;;;;19.08;14.27;;;;;;;;;;5050693;28;20123;-61
2022/03/10 03:21:29;;;;;;;20.00;14.05;;;;;;;;;;5049877;28;20045;-62
2022/03/10 03:23:56;;;;;;;21.90;14.80;;;;;;;;;;5056196;28;20048;-62
2022/03/10 03:26:22;;;;;;;16.98;12.38;;;;;;;;;;5052090;28;20091;-62
2022/03/10 03:28:48;;;;;;;18.73;12.98;;;;;;;;;;5057684;28;20172;-62
2022/03/10 03:31:14;;;;;;;22.17;14.27;;;;;;;;;;5056860;28;20041;-63
2022/03/10 03:33:40;;;;;;;18.23;13.23;;;;;;;;;;5059797;28;20032;-62
2022/03/10 03:36:07;;;;;;;18.25;13.50;;;;;;;;;;5055433;28;20040;-62
2022/03/10 03:38:33;;;;;;;18.85;13.77;;;;;;;;;;5066279;28;20051;-62
2022/03/10 03:40:59;;;;;;;18.45;13.40;;;;;;;;;;5060791;28;20116;-63
2022/03/10 03:43:26;;;;;;;18.85;12.93;;;;;;;;;;5062151;28;20041;-62
2022/03/10 03:45:52;;;;;;;20.75;14.23;;;;;;;;;;5060558;28;20436;-61
2022/03/10 03:48:18;;;;;;;17.85;13.15;;;;;;;;;;5059579;28;20072;-63
2022/03/10 03:50:44;;;;;;;18.85;12.63;;;;;;;;;;5054312;28;20406;-61
2022/03/10 03:53:10;;;;;;;20.90;13.68;;;;;;;;;;5060601;28;20371;-62
2022/03/10 03:55:36;;;;;;;16.63;12.75;;;;;;;;;;5053144;28;20120;-63
2022/03/10 03:58:02;;;;;;;19.83;13.23;;;;;;;;;;5061817;28;20124;-62
2022/03/10 04:00:28;;;;;;;18.08;12.20;;;;;;;;;;5055395;28;20060;-62
2022/03/10 04:02:54;;;;;;;19.27;12.10;;;;;;;;;;5061574;28;20075;-62
2022/03/10 04:05:21;;;;;;;18.10;12.35;;;;;;;;;;5042875;28;20043;-61
2022/03/10 04:07:47;;;;;;;17.23;13.13;;;;;;;;;;5053453;28;20083;-61
2022/03/10 04:10:14;;;;;;;17.23;12.05;;;;;;;;;;5062206;28;20056;-64
2022/03/10 04:12:40;;;;;;;17.10;12.25;;;;;;;;;;5059216;28;20068;-62
2022/03/10 04:15:06;;;;;;;19.77;12.35;;;;;;;;;;5061606;28;20558;-61
2022/03/10 04:17:32;;;;;;;19.90;13.27;;;;;;;;;;5065701;28;20476;-62
2022/03/10 04:19:59;;;;;;;19.92;13.63;;;;;;;;;;5063836;28;20048;-62
2022/03/10 04:22:25;;;;;;;16.70;11.90;;;;;;;;;;5064243;28;20040;-62
2022/03/10 04:24:51;;;;;;;17.20;12.38;;;;;;;;;;5069870;28;20494;-62
2022/03/10 04:27:18;;;;;;;20.48;12.45;;;;;;;;;;5053044;28;20037;-62
2022/03/10 04:29:44;;;;;;;16.90;12.38;;;;;;;;;;5054426;28;20067;-62
2022/03/10 04:32:10;;;;;;;19.83;12.95;;;;;;;;;;5057620;28;20102;-62
2022/03/10 04:34:36;;;;;;;16.15;11.82;;;;;;;;;;5052751;28;20043;-62
2022/03/10 04:37:02;;;;;;;17.27;12.23;;;;;;;;;;5061794;28;20076;-62
2022/03/10 04:39:28;;;;;;;18.70;12.15;;;;;;;;;;5042219;28;20037;-62
2022/03/10 04:41:54;;;;;;;17.95;12.77;;;;;;;;;;5066093;28;20043;-63
2022/03/10 04:44:21;;;;;;;18.00;12.35;;;;;;;;;;5068131;28;20036;-62
2022/03/10 04:46:47;;;;;;;16.30;12.00;;;;;;;;;;5053237;28;20091;-62
2022/03/10 04:49:13;;;;;;;16.92;11.82;;;;;;;;;;5057920;28;20051;-62
2022/03/10 04:51:39;;;;;;;19.92;12.20;;;;;;;;;;5048616;28;20396;-62
2022/03/10 04:54:05;;;;;;;19.00;12.38;;;;;;;;;;5061383;28;20091;-62
2022/03/10 04:56:31;;;;;;;17.83;11.82;;;;;;;;;;5063682;28;20071;-62
2022/03/10 04:58:57;;;;;;;21.63;13.32;;;;;;;;;;5062523;28;20033;-62
2022/03/10 05:01:23;;;;;;;19.88;11.70;;;;;;;;;;5058312;28;20051;-63
2022/03/10 05:03:50;;;;;;;17.48;11.73;;;;;;;;;;5065569;28;20397;-60
2022/03/10 05:06:16;;;;;;;18.52;12.88;;;;;;;;;;5068870;28;20444;-62
2022/03/10 05:08:43;;;;;;;19.17;12.82;;;;;;;;;;5053973;28;20456;-63
2022/03/10 05:11:09;;;;;;;16.00;11.60;;;;;;;;;;5041706;28;20092;-61
2022/03/10 05:13:35;;;;;;;18.80;12.70;;;;;;;;;;5061647;28;20389;-61
2022/03/10 05:16:01;;;;;;;19.83;13.65;;;;;;;;;;5056144;28;20477;-60
2022/03/10 05:18:27;;;;;;;17.95;11.90;;;;;;;;;;5056182;28;20378;-61
2022/03/10 05:20:53;;;;;;;16.48;11.90;;;;;;;;;;5058605;28;20048;-60
2022/03/10 05:23:19;;;;;;;17.23;12.70;;;;;;;;;;5070985;28;20455;-61
2022/03/10 05:25:45;;;;;;;17.55;12.82;;;;;;;;;;5059570;28;20045;-61
2022/03/10 05:28:14;;;;;;;17.40;11.95;;;;;;;;;;5064452;28;20449;-60
2022/03/10 05:30:41;;;;;;;16.20;11.93;;;;;;;;;;5063919;28;20053;-60
2022/03/10 05:33:08;;;;;;;18.83;12.40;;;;;;;;;;5055304;28;20121;-58
2022/03/10 05:35:34;;;;;;;21.80;12.35;;;;;;;;;;5062214;28;20102;-65
2022/03/10 05:38:01;;;;;;;18.38;12.32;;;;;;;;;;5056724;28;20045;-62
2022/03/10 05:40:27;;;;;;;20.73;12.93;;;;;;;;;;5061190;28;20044;-61
2022/03/10 05:42:53;;;;;;;18.00;12.43;;;;;;;;;;5056132;28;20541;-66
2022/03/10 05:45:20;;;;;;;21.90;12.38;;;;;;;;;;5060186;28;20502;-63
2022/03/10 05:47:50;;;;;;;19.00;13.02;;;;;;;;;;5053706;28;20059;-63
2022/03/10 05:50:17;;;;;;;18.40;12.18;;;;;;;;;;5057059;28;20037;-64
2022/03/10 05:52:45;;;;;;;19.25;12.40;;;;;;;;;;5036832;28;20071;-61
2022/03/10 05:55:12;;;;;;;22.20;13.60;;;;;;;;;;5067693;28;20037;-61
2022/03/10 05:57:38;;;;;;;16.55;11.65;;;;;;;;;;5054520;28;20041;-64
2022/03/10 06:00:05;;;;;;;16.80;12.70;;;;;;;;;;5062862;28;20040;-64
2022/03/10 06:02:31;;;;;;;21.23;14.02;;;;;;;;;;5060917;28;20051;-62
2022/03/10 06:05:01;;;;;;;17.58;12.07;;;;;;;;;;5055060;28;20048;-62
2022/03/10 06:07:27;;;;;;;20.70;12.85;;;;;;;;;;5061349;28;20037;-62
2022/03/10 06:09:55;;;;;;;22.02;12.93;;;;;;;;;;5051182;28;20556;-64
2022/03/10 06:12:25;;;;;;;16.98;12.00;;;;;;;;;;5059045;28;20044;-61
2022/03/10 06:14:55;;;;;;;21.23;13.07;;;;;;;;;;5055306;28;20132;-63
2022/03/10 06:17:21;;;;;;;18.33;12.63;;;;;;;;;;5041253;28;20048;-62
2022/03/10 06:19:48;;;;;;;24.10;13.68;;;;;;;;;;5041774;28;20051;-62
2022/03/10 06:22:17;;;;;;;23.25;13.85;;;;;;;;;;5064619;28;20040;-59
2022/03/10 06:24:44;;;;;;;17.95;12.93;;;;;;;;;;5062949;28;20656;-59
2022/03/10 06:27:11;;;;;;;19.02;13.38;;;;;;;;;;5063872;28;20397;-60
2022/03/10 06:29:39;;;;;;;20.40;13.25;;;;;;;;;;5053607;28;20406;-60
2022/03/10 06:32:05;;;;;;;21.05;12.93;;;;;;;;;;5050137;28;20139;-59
2022/03/10 06:34:31;;;;;;;19.17;13.82;;;;;;;;;;5058229;28;20082;-59
2022/03/10 06:36:57;;;;;;;21.27;14.52;;;;;;;;;;5051969;28;20106;-64
2022/03/10 06:39:23;;;;;;;21.13;13.43;;;;;;;;;;5061664;28;20128;-59
2022/03/10 06:41:49;;;;;;;21.92;13.65;;;;;;;;;;5061491;28;20512;-62
2022/03/10 06:44:16;;;;;;;25.98;14.98;;;;;;;;;;5059152;28;20044;-61
2022/03/10 06:46:42;;;;;;;19.88;14.43;;;;;;;;;;5045091;28;20444;-64
2022/03/10 06:49:08;;;;;;;18.92;13.35;;;;;;;;;;5060030;28;20090;-61
2022/03/10 06:51:34;;;;;;;20.67;13.48;;;;;;;;;;5052274;28;20036;-61
2022/03/10 06:54:00;;;;;;;19.95;13.38;;;;;;;;;;5059847;28;20047;-61
2022/03/10 06:56:26;;;;;;;19.40;12.95;;;;;;;;;;5037957;28;20098;-61
2022/03/10 06:58:52;;;;;;;20.70;13.25;;;;;;;;;;5054239;28;20036;-62
2022/03/10 07:01:20;;;;;;;18.38;12.80;;;;;;;;;;5054624;28;20029;-61
2022/03/10 07:03:46;;;;;;;24.27;14.52;;;;;;;;;;5060389;28;20052;-60
2022/03/10 07:06:12;;;;;;;19.80;13.82;;;;;;;;;;5058098;28;20037;-60
2022/03/10 07:08:38;;;;;;;20.70;14.45;;;;;;;;;;5055401;28;20132;-61
2022/03/10 07:11:04;;;;;;;22.95;14.45;;;;;;;;;;5056768;28;20378;-61
2022/03/10 07:13:30;;;;;;;22.52;13.52;;;;;;;;;;5058481;28;20116;-59
2022/03/10 07:15:56;;;;;;;18.35;13.00;;;;;;;;;;5053782;28;20040;-60
2022/03/10 07:18:22;;;;;;;21.73;13.07;;;;;;;;;;5052847;28;20044;-60
2022/03/10 07:20:49;;;;;;;21.90;14.25;;;;;;;;;;5055209;28;20037;-62
2022/03/10 07:23:15;;;;;;;19.52;13.93;;;;;;;;;;5055670;28;20436;-61
2022/03/10 07:25:42;;;;;;;23.67;14.27;;;;;;;;;;5063163;28;20041;-64
2022/03/10 07:33:13;;;;;;;19.02;12.65;;;;;;;;;;5072270;28;20041;-63
2022/03/10 07:35:39;;;;;;;21.15;13.82;;;;;;;;;;5073148;28;20046;-65
2022/03/10 07:38:05;;;;;;;19.30;13.68;;;;;;;;;;5073953;28;20048;-63
2022/03/10 07:40:31;;;;;;;19.48;13.52;;;;;;;;;;5072776;28;20067;-62
2022/03/10 07:42:57;;;;;;;18.98;13.18;;;;;;;;;;5073229;28;20036;-63
2022/03/10 07:45:24;;;;;;;19.92;13.68;;;;;;;;;;5074352;28;20036;-63
2022/03/10 07:47:51;;;;;;;16.38;12.63;;;;;;;;;;5073438;28;20068;-64
2022/03/10 07:50:17;;;;;;;18.95;14.15;;;;;;;;;;5073066;28;20055;-63
2022/03/10 07:52:44;;;;;;;18.60;12.88;;;;;;;;;;5073078;28;20087;-63
2022/03/10 07:55:13;;;;;;;20.15;13.32;;;;;;;;;;5072563;28;20040;-62
2022/03/10 07:57:40;;;;;;;22.48;13.45;;;;;;;;;;5073140;28;20112;-66
2022/03/10 08:00:07;;;;;;;20.55;14.00;;;;;;;;;;5054026;28;20055;-65
2022/03/10 08:02:33;;;;;;;19.98;13.50;;;;;;;;;;5070390;28;20036;-65
2022/03/10 08:04:59;;;;;;;18.20;13.45;;;;;;;;;;5068991;28;20138;-62
2022/03/10 08:07:25;;;;;;;20.05;13.70;;;;;;;;;;5051896;28;20044;-63
2022/03/10 08:09:51;;;;;;;19.20;13.05;;;;;;;;;;5070031;28;20080;-66
2022/03/10 08:12:17;;;;;;;20.75;13.68;;;;;;;;;;5070473;28;20036;-65
2022/03/10 08:14:43;;;;;;;19.25;14.20;;;;;;;;;;5065156;28;20048;-65
2022/03/10 08:17:09;;;;;;;17.90;14.32;;;;;;;;;;5068578;28;20266;-64
2022/03/10 08:19:36;;;;;;;20.02;12.73;;;;;;;;;;5060219;28;20044;-65
2022/03/10 08:22:06;;;;;;;17.10;14.30;;;;;;;;;;5070811;28;20047;-65
2022/03/10 08:24:32;;;;;;;20.00;13.63;;;;;;;;;;5072542;28;20143;-64
2022/03/10 08:26:58;;;;;;;20.63;13.25;;;;;;;;;;5071890;28;20076;-65
2022/03/10 08:29:24;;;;;;;18.17;12.75;;;;;;;;;;5054860;28;20052;-64
2022/03/10 08:31:50;;;;;;;20.33;13.77;;;;;;;;;;5071747;28;20041;-64
2022/03/10 08:34:16;;;;;;;18.73;13.55;;;;;;;;;;5071586;28;20409;-64
2022/03/10 08:36:42;;;;;;;20.40;13.75;;;;;;;;;;5071598;28;20040;-65
2022/03/10 08:39:08;;;;;;;18.88;13.00;;;;;;;;;;5072099;28;20032;-65
2022/03/10 08:41:35;;;;;;;16.38;13.60;;;;;;;;;;5065680;28;20485;-66
2022/03/10 08:44:02;;;;;;;21.35;13.27;;;;;;;;;;5073596;28;20075;-64
2022/03/10 08:46:28;;;;;;;17.92;13.38;;;;;;;;;;5072228;28;20469;-63
2022/03/10 08:48:54;;;;;;;16.65;13.13;;;;;;;;;;5065655;28;20076;-64
2022/03/10 08:51:20;;;;;;;16.98;14.00;;;;;;;;;;5073155;28;20044;-64
2022/03/10 08:53:46;;;;;;;14.40;12.25;;;;;;;;;;5072383;28;20048;-64
2022/03/10 08:56:12;;;;;;;17.70;13.60;;;;;;;;;;5071845;28;20039;-64
2022/03/10 08:58:38;;;;;;;14.88;12.35;;;;;;;;;;5072102;28;20045;-64
2022/03/10 09:01:04;;;;;;;16.15;13.35;;;;;;;;;;5071128;28;20047;-64
2022/03/10 09:03:30;;;;;;;15.93;12.73;;;;;;;;;;5071885;28;20044;-64
2022/03/10 09:05:57;;;;;;;17.33;13.38;;;;;;;;;;5071166;28;20442;-64
2022/03/10 09:08:23;;;;;;;18.02;12.65;;;;;;;;;;5071964;28;20036;-65
2022/03/10 09:10:49;;;;;;;16.00;13.45;;;;;;;;;;5069595;28;20040;-66
2022/03/10 09:13:16;;;;;;;15.13;12.80;;;;;;;;;;5071419;28;20032;-65
2022/03/10 09:15:45;;;;;;;14.95;12.75;;;;;;;;;;5070281;28;20043;-65
2022/03/10 09:18:12;;;;;;;16.60;13.60;;;;;;;;;;5067696;28;20048;-64
2022/03/10 09:20:38;;;;;;;15.23;13.20;;;;;;;;;;5047576;28;20046;-64
2022/03/10 09:23:04;;;;;;;19.30;13.80;;;;;;;;;;5068664;28;20480;-65
2022/03/10 09:25:30;;;;;;;15.40;13.00;;;;;;;;;;5066316;28;20066;-66
2022/03/10 09:27:56;;;;;;;15.45;12.45;;;;;;;;;;5070769;28;20412;-66
2022/03/10 09:30:22;;;;;;;15.43;13.15;;;;;;;;;;5071614;28;20032;-66
2022/03/10 09:32:49;;;;;;;14.77;13.10;;;;;;;;;;5069744;28;20040;-66
2022/03/10 09:35:17;;;;;;;15.77;12.90;;;;;;;;;;5069823;28;20049;-66
2022/03/10 09:37:43;;;;;;;17.27;13.90;;;;;;;;;;5058286;28;20041;-65
2022/03/10 09:40:10;;;;;;;16.17;12.10;;;;;;;;;;5071831;28;20404;-66
2022/03/10 09:42:36;;;;;;;18.88;13.82;;;;;;;;;;5071395;28;20044;-66
2022/03/10 09:45:05;;;;;;;18.38;13.85;;;;;;;;;;5062657;28;20040;-66
2022/03/10 09:47:31;;;;;;;14.88;13.32;;;;;;;;;;5066942;28;20039;-66
2022/03/10 09:49:57;;;;;;;14.95;13.30;;;;;;;;;;5069500;28;20081;-66
2022/03/10 09:52:25;;;;;;;14.93;12.98;;;;;;;;;;5071421;28;20439;-64
2022/03/10 09:54:51;;;;;;;15.70;13.30;;;;;;;;;;5052677;28;20049;-63
2022/03/10 09:57:18;;;;;;;15.27;13.00;;;;;;;;;;5071715;28;20090;-63
2022/03/10 09:59:50;;;;;;;14.45;12.95;;;;;;;;;;5071075;28;20555;-64
2022/03/10 10:02:17;;;;;;;15.57;13.07;;;;;;;;;;5071090;28;20377;-64
2022/03/10 10:04:44;;;;;;;16.48;13.68;;;;;;;;;;5068043;28;20135;-62
2022/03/10 10:07:11;;;;;;;14.27;12.75;;;;;;;;;;5070054;28;20423;-63
2022/03/10 10:09:40;;;;;;;14.88;13.40;;;;;;;;;;5068776;28;20079;-64
2022/03/10 10:12:07;;;;;;;14.65;13.02;;;;;;;;;;5070124;28;20493;-62
2022/03/10 10:14:37;;;;;;;14.45;13.05;;;;;;;;;;5068261;28;20032;-64
2022/03/10 10:17:04;;;;;;;16.83;13.32;;;;;;;;;;5069274;28;20114;-63
2022/03/10 10:19:32;;;;;;;14.20;12.52;;;;;;;;;;5068088;28;20114;-64
2022/03/10 10:22:28;;;;;;;14.63;13.13;;;;;;;;;;5067455;28;20055;-65
2022/03/10 10:24:54;;;;;;;15.43;13.93;;;;;;;;;;5047308;28;20439;-65
2022/03/10 10:27:21;;;;;;;15.15;13.43;;;;;;;;;;5069073;28;20516;-64
2022/03/10 10:29:48;;;;;;;14.80;13.25;;;;;;;;;;5070185;28;20040;-64
2022/03/10 10:32:23;;;;;;;16.65;14.13;;;;;;;;;;5070280;28;20029;-64
2022/03/10 10:35:04;;;;;;;14.68;13.20;;;;;;;;;;5070253;28;20094;-61
2022/03/10 10:37:30;;;;;;;14.15;12.23;;;;;;;;;;5070243;28;20040;-64
2022/03/10 10:39:58;;;;;;;14.77;13.27;;;;;;;;;;5070296;28;20037;-65
2022/03/10 10:42:31;;;;;;;15.18;13.43;;;;;;;;;;5070861;28;20070;-62
2022/03/10 10:44:59;;;;;;;15.07;13.48;;;;;;;;;;5070358;28;20523;-64
2022/03/10 10:47:26;;;;;;;15.27;13.65;;;;;;;;;;5071040;28;20043;-64
2022/03/10 10:50:04;;;;;;;15.32;13.65;;;;;;;;;;5069711;28;20506;-65
2022/03/10 10:52:39;;;;;;;14.32;12.82;;;;;;;;;;5068469;28;20233;-65
2022/03/10 10:55:07;;;;;;;15.50;12.75;;;;;;;;;;5068668;28;20554;-65
2022/03/10 10:57:34;;;;;;;15.02;13.38;;;;;;;;;;5070841;28;20383;-63
2022/03/10 11:00:05;;;;;;;15.52;13.60;;;;;;;;;;5071491;28;20474;-62
2022/03/10 11:02:31;;;;;;;14.80;13.18;;;;;;;;;;5065812;28;20288;-63
2022/03/10 11:04:59;;;;;;;14.60;13.00;;;;;;;;;;5074235;28;20048;-63
2022/03/10 11:07:25;;;;;;;17.67;13.88;;;;;;;;;;5074749;28;20409;-64
2022/03/10 11:09:52;;;;;;;15.68;14.00;;;;;;;;;;5067023;28;20045;-62
2022/03/10 11:12:19;;;;;;;17.55;15.13;;;;;;;;;;5063970;28;20052;-64
2022/03/10 11:14:46;;;;;;;16.00;14.10;;;;;;;;;;5067184;28;20045;-63
2022/03/10 11:17:13;;;;;;;17.55;15.85;;;;;;;;;;5063748;28;20076;-63
2022/03/10 11:19:42;;;;;;;17.67;14.90;;;;;;;;;;5066011;28;20107;-63
2022/03/10 11:22:12;;;;;;;17.17;14.77;;;;;;;;;;5067077;28;20036;-64
2022/03/10 11:24:57;;;;;;;16.15;14.45;;;;;;;;;;5073077;28;20040;-63
2022/03/10 11:27:41;;;;;;;16.67;14.95;;;;;;;;;;5073084;28;20109;-64
2022/03/10 11:30:08;;;;;;;15.95;14.32;;;;;;;;;;5068654;28;20051;-62
2022/03/10 11:32:34;;;;;;;15.80;14.07;;;;;;;;;;5071204;28;20036;-64
2022/03/10 11:35:01;;;;;;;15.30;13.68;;;;;;;;;;5067261;28;20078;-63
2022/03/10 11:37:36;;;;;;;15.35;13.50;;;;;;;;;;5067966;28;20044;-64
2022/03/10 11:40:04;;;;;;;18.67;14.90;;;;;;;;;;5070050;28;20036;-64
2022/03/10 11:42:30;;;;;;;16.40;14.00;;;;;;;;;;5064890;28;20119;-64
2022/03/10 11:45:05;;;;;;;16.35;14.65;;;;;;;;;;5068114;28;20043;-64
2022/03/10 11:47:31;;;;;;;15.65;14.02;;;;;;;;;;5070476;28;20039;-64
2022/03/10 11:49:57;;;;;;;16.27;14.20;;;;;;;;;;5069787;28;20132;-65
2022/03/10 11:52:28;;;;;;;16.15;14.45;;;;;;;;;;5073490;28;20040;-65
2022/03/10 11:55:03;;;;;;;16.17;14.57;;;;;;;;;;5073417;28;20040;-65
2022/03/10 11:57:29;;;;;;;15.88;14.25;;;;;;;;;;5066547;28;20036;-66
2022/03/10 11:59:55;;;;;;;18.42;15.55;;;;;;;;;;5069909;28;20040;-65
2022/03/10 12:02:53;;;;;;;18.83;16.02;;;;;;;;;;5067870;28;20116;-66
2022/03/10 12:05:20;;;;;;;17.58;15.77;;;;;;;;;;4986443;28;20087;-66
2022/03/10 12:07:51;;;;;;;16.70;15.05;;;;;;;;;;5070404;28;20036;-67
2022/03/10 12:10:18;;;;;;;16.73;14.90;;;;;;;;;;5073169;28;20284;-66
2022/03/10 12:12:48;;;;;;;17.25;15.52;;;;;;;;;;5064618;28;20460;-66
2022/03/10 12:15:26;;;;;;;17.40;15.48;;;;;;;;;;5073008;28;20041;-66
2022/03/10 12:17:54;;;;;;;17.52;15.15;;;;;;;;;;5070377;28;20574;-67
2022/03/10 12:20:21;;;;;;;16.17;14.52;;;;;;;;;;5070285;28;20084;-63
2022/03/10 12:23:19;;;;;;;17.50;15.77;;;;;;;;;;5071522;28;20071;-64
2022/03/10 12:25:46;;;;;;;17.67;15.77;;;;;;;;;;5070558;28;20442;-63
2022/03/10 12:28:21;;;;;;;17.25;15.23;;;;;;;;;;5068838;28;20083;-65
2022/03/10 12:30:47;;;;;;;19.08;16.27;;;;;;;;;;5073209;28;20401;-65
2022/03/10 12:33:13;;;;;;;17.45;15.65;;;;;;;;;;5065737;28;20500;-62
2022/03/10 12:35:43;;;;;;;17.33;15.00;;;;;;;;;;5073659;28;20116;-63
2022/03/10 12:38:09;;;;;;;18.20;16.25;;;;;;;;;;5073225;28;20041;-65
2022/03/10 12:40:37;;;;;;;18.25;15.85;;;;;;;;;;5069687;28;20099;-67
2022/03/10 12:43:07;;;;;;;17.33;14.93;;;;;;;;;;5043787;28;20075;-66
2022/03/10 12:45:33;;;;;;;18.77;16.23;;;;;;;;;;5070595;28;20086;-65
2022/03/10 12:48:09;;;;;;;16.90;15.07;;;;;;;;;;5062670;28;20119;-66
2022/03/10 12:50:36;;;;;;;17.77;15.30;;;;;;;;;;5065380;28;20505;-65
2022/03/10 12:53:09;;;;;;;16.83;15.15;;;;;;;;;;5063985;28;20428;-66
2022/03/10 12:55:35;;;;;;;19.70;16.48;;;;;;;;;;5063997;28;20039;-66
2022/03/10 12:58:01;;;;;;;17.10;15.30;;;;;;;;;;5058310;28;20037;-65
2022/03/10 13:00:27;;;;;;;18.05;15.50;;;;;;;;;;5067806;28;20051;-65
2022/03/10 13:02:57;;;;;;;18.30;16.33;;;;;;;;;;5073558;28;20036;-66
2022/03/10 13:05:24;;;;;;;19.17;15.40;;;;;;;;;;5073480;28;20049;-65
2022/03/10 13:07:50;;;;;;;16.85;15.07;;;;;;;;;;5073264;28;20493;-65
2022/03/10 13:10:17;;;;;;;16.75;14.55;;;;;;;;;;5073423;28;20350;-65
2022/03/10 13:12:45;;;;;;;18.08;15.07;;;;;;;;;;5073049;28;20037;-65
2022/03/10 13:15:19;;;;;;;18.10;15.55;;;;;;;;;;5041392;28;20394;-66
2022/03/10 13:17:45;;;;;;;20.75;16.75;;;;;;;;;;5066204;28;20145;-65
2022/03/10 13:20:15;;;;;;;17.55;15.75;;;;;;;;;;5072956;28;20036;-65
2022/03/10 13:23:04;;;;;;;16.98;15.20;;;;;;;;;;5072696;28;20042;-64
2022/03/10 13:25:40;;;;;;;18.35;15.30;;;;;;;;;;5061819;28;20052;-66
2022/03/10 13:28:16;;;;;;;17.73;15.20;;;;;;;;;;5064084;28;20167;-67
2022/03/10 13:30:42;;;;;;;18.23;16.33;;;;;;;;;;5072036;28;20041;-66
2022/03/10 13:33:10;;;;;;;17.63;15.05;;;;;;;;;;5067536;28;20386;-66
2022/03/10 13:35:37;;;;;;;17.23;15.50;;;;;;;;;;5072235;28;20458;-66
2022/03/10 13:38:05;;;;;;;17.88;15.15;;;;;;;;;;5071913;28;20486;-66
2022/03/10 13:40:32;;;;;;;17.58;15.63;;;;;;;;;;5071814;28;20601;-66
2022/03/10 13:42:59;;;;;;;19.55;16.33;;;;;;;;;;5045696;28;20527;-66
2022/03/10 13:45:25;;;;;;;18.25;16.25;;;;;;;;;;5065177;28;20119;-66
2022/03/10 13:48:01;;;;;;;17.70;15.77;;;;;;;;;;5071012;28;20114;-66
2022/03/10 13:50:28;;;;;;;19.08;16.92;;;;;;;;;;5071552;28;20124;-66
2022/03/10 13:52:58;;;;;;;18.35;15.95;;;;;;;;;;5070307;28;20040;-66
2022/03/10 13:55:29;;;;;;;17.40;15.07;;;;;;;;;;5071755;28;20032;-66
2022/03/10 13:57:55;;;;;;;18.92;16.13;;;;;;;;;;5071794;28;20078;-67
2022/03/10 14:00:25;;;;;;;18.75;16.75;;;;;;;;;;5072453;28;20047;-66
2022/03/10 14:02:52;;;;;;;19.55;16.38;;;;;;;;;;5063612;28;20044;-65
2022/03/10 14:05:20;;;;;;;19.25;17.05;;;;;;;;;;5068225;28;20053;-66
2022/03/10 14:08:04;;;;;;;18.02;16.13;;;;;;;;;;5072048;28;20125;-66
2022/03/10 14:10:31;;;;;;;19.67;17.20;;;;;;;;;;5050759;28;20125;-66
2022/03/10 14:12:57;;;;;;;20.25;17.08;;;;;;;;;;5067030;28;20040;-66
2022/03/10 14:15:27;;;;;;;19.52;17.10;;;;;;;;;;5068063;28;20040;-66
2022/03/10 14:17:56;;;;;;;18.10;16.20;;;;;;;;;;5034681;28;20072;-66
2022/03/10 14:20:38;;;;;;;21.88;17.80;;;;;;;;;;5059463;28;20498;-66
2022/03/10 14:23:05;;;;;;;20.52;17.67;;;;;;;;;;5065911;28;20503;-66
2022/03/10 14:25:39;;;;;;;19.95;17.10;;;;;;;;;;5052172;28;20049;-66
2022/03/10 14:28:08;;;;;;;21.67;18.55;;;;;;;;;;5065945;28;20032;-66